Eastern Shore: Past 24 Hour Conditions

 

St. Anthony Airport

05:30 AM NST 21 December 2014
Disclaimer

This table is a summary of hourly weather conditions for the past 24 hours.
Please note that these observations might not always be representative of weather conditions over their associated marine area.

Date / Time
(NST)
Wind(knots) Conditions Visibility(km) Pressure(kPa) Air tempC) Relative humidity(%) Dew pointC) Wind Chill
21 December 2014
5:30 SW 13 gust 18 Partly Cloudy 16 102.4 -5 83 -8 -13
4:30 WSW 14 gust 20 Cloudy 16 102.4 -4 87 -6 -11
3:30 WSW 14 gust 21 Cloudy 16 102.3 -4 86 -6 -11
2:30 WSW 10 gust 16 Cloudy 16 102.4 -4 86 -6 -10
1:30 WSW 12 gust 17 Cloudy 16 102.4 -4 84 -7 -11
0:30 SW 11 Cloudy 16 102.5 -5 86 -7 -11
20 December 2014
23:30 WSW 11 Cloudy 16 102.6 -5 85 -7 -11
22:30 SW 8 gust 15 Cloudy 16 102.6 -5 87 -7 -11
21:30 SW 7 Cloudy 16 102.6 -5 89 -7 -11
20:30 SSW 7 Cloudy 16 102.7 -6 90 -8 -12
19:30 SW 8 Cloudy 16 102.6 -8 92 -9 -14
18:30 SSW 8 Cloudy 16 102.6 -9 93 -10 -15
17:30 SW 7 Clear 16 102.6 -8 94 -9 -14
16:30 SSW 5 Clear 16 102.6 -7 89 -8 -11
15:30 ESE 3 Sunny 16 102.5 -7 86 -9 -9
14:30 NW 3 Sunny 16 102.5 -5 81 -8 -7
13:30 NW 4 Sunny 16 102.5 -5 81 -8 -9
12:30 N 5 Sunny 16 102.5 -5 81 -8 -9
11:30 NNW 4 Sunny 16 102.6 -6 83 -8 -10
10:30 NNW 4 Sunny 16 102.6 -7 87 -9 -11
9:30 NW 3 Sunny 16 102.5 -10 92 -11 -12
8:30 NNW 4 Sunny 16 102.4 -8 88 -10 -12
7:30 NNW 9 Clear 16 102.3 -8 86 -10 -14
6:30 NW 7 Mainly Clear 16 102.2 -8 89 -10 -14
5:30 NNW 7 Clear 16 102.1 -7 85 -9 -12
Map of Atlantic - Newfoundland marine weather areas Southwestern Grand Banks - 44138 Banquereau - 44139 Tail of the Bank - 44140 Nickerson Bank - 44251 Northeast Burgeo Bank - 44255 Blanc-Sablon Airport Cap Whittle Chevery Natashquan Airport Heath Point Miscou Island Grand Étang Ingonish Beach North Mountain St.Paul Island J.A. Douglas McCurdy Sydney Airport Charlottetown Airport East Point North Cape Argentia Bonavista Burgeo Cape Race Corner Brook Daniel's Harbour Englee Ferolle Point La Scie Port aux Basques Rocky Harbour Sagona Island St. Anthony Airport St. John's Int'l Airport St. Lawrence Stephenville Airport Twillingate Winterland Wreckhouse Cartwright Airport Mary's Harbour Grates Cove Pool's Island Marticot Island Long Pond Îles de la Madeleine Airport
Legend:
buoy Buoy
land station Land Station

Atlantic - Newfoundland Area

Another Region

What we are doing

Date modified: